Station: Stenhouse Bay

  Atmospheric Gas Attenuation - ITU Rec 676-11   --------------- db/100km ---------------
Date Time Temp RH % AH g/m3 Dew Point Wind Direction Speed kph Gust kph Barometer mB Rainfall Since 9am 24GHz 47GHz 76GHz 122GHz 134GHz 241GHz
25 01:40 16.5 84 11.79 13.9 13 15 1013.1 0 26.3 30.4 51.5 135.8 138.0 477.2
25 01:30 16.5 85 11.93 14 13 17 1012 0 26.6 30.6 52.1 137.3 139.9 483.8
25 01:20 16.4 84 11.72 13.8 13 15 1013.1 0 26.1 30.3 51.3 135.2 137.2 474.4
25 01:10 16.4 84 11.72 13.7 13 17 1013.1 0 26.1 30.3 51.3 135.2 137.2 474.4
25 01:00 16.4 85 11.86 13.9 11 15 1012.5 0 26.4 30.5 51.9 136.7 139.1 481.1
25 00:50 16.4 84 11.72 13.8 13 15 1013.1 0 26.1 30.3 51.3 135.2 137.2 474.4
25 00:40 16.4 84 11.72 13.7 11 13 1013.1 0 26.1 30.3 51.3 135.2 137.2 474.4
25 00:30 16.4 84 11.72 13.7 11 15 1012.9 0 26.1 30.3 51.3 135.1 137.2 474.3
25 00:20 16.4 84 11.72 13.7 13 13 1013.1 0 26.1 30.3 51.3 135.2 137.2 474.4
25 00:10 16.2 84 11.58 13.5 7 9 1013.1 0 25.8 30.1 50.8 133.9 135.5 468.7
25 00:00 15.9 84 11.38 13.2 9 11 1013.4 0 25.4 29.9 50.2 132.2 133.3 460.7
24 23:50 15.7 83 11.1 12.8 9 11 1013.1 0 24.8 29.5 49.1 129.3 129.6 448.0
24 23:40 15.3 83 10.84 12.4 7 9 1013.1 0 24.3 29.2 48.2 127.0 126.7 437.6
24 23:30 15.4 83 10.9 12.5 7 9 1013.6 0 24.4 29.2 48.4 127.5 127.4 440.1
24 23:20 15.3 83 10.84 12.4 7 7 1013.1 0 24.3 29.2 48.2 127.0 126.7 437.6
24 23:10 15.2 83 10.77 12.3 7 7 1013.1 0 24.2 29.1 48.0 126.3 125.9 434.7
24 23:00 15.2 82 10.64 12.2 7 7 1013.7 0 23.9 28.9 47.5 124.9 124.1 428.6
24 22:50 15.2 82 10.64 12.1 7 7 1013.1 0 23.9 28.8 47.4 124.8 124.0 428.4
24 22:40 15.4 82 10.77 12.3 7 7 1013.1 0 24.1 29.0 47.9 126.0 125.5 433.6
24 22:30 15.6 82 10.9 12.5 7 11 1014 0 24.4 29.2 48.3 127.3 127.1 439.1
24 22:20 15.7 82 10.97 12.6 7 11 1013.1 0 24.6 29.2 48.5 127.8 127.8 441.6
24 22:10 15.9 82 11.1 12.8 13 13 1013.1 0 24.8 29.4 49.0 128.9 129.3 446.8
24 22:00 15.6 82 10.9 12.5 11 13 1014.2 0 24.4 29.2 48.4 127.3 127.1 439.2
24 21:50 15.6 81 10.77 12.3 11 13 1013.1 0 24.1 28.9 47.7 125.7 125.2 432.5
24 21:40 15.3 78 10.19 11.6 11 11 1013.1 0 22.9 28.1 45.5 119.6 117.7 406.1
24 21:30 15.1 77 9.93 11.1 0 4 1014.2 0 22.4 27.7 44.6 117.2 114.5 395.1
24 21:20 15.1 76 9.8 10.9 0 2 1013.1 0 22.1 27.5 44.0 115.6 112.7 388.6
24 21:10 14.9 75 9.56 10.5 6 6 1013.1 0 21.6 27.1 43.1 113.3 109.7 378.2
24 21:00 14.7 73 9.19 9.9 2 6 1014.2 0 20.8 26.6 41.8 109.7 105.1 362.2
24 20:50 15.6 73 9.71 10.9 6 7 1013.1 0 21.9 27.2 43.3 113.9 110.7 381.9
24 20:40 15.6 72 9.57 10.7 9 9 1013.1 0 21.6 26.9 42.8 112.4 108.9 375.3
24 20:30 16.2 73 10.07 11.4 13 17 1014.1 0 22.6 27.6 44.5 117.1 114.8 396.1
24 20:20 15.9 73 9.89 11.2 15 17 1013.1 0 22.2 27.4 43.9 115.4 112.7 388.8
24 20:10 16 74 10.08 11.5 15 17 1013.1 0 22.6 27.6 44.6 117.4 115.1 397.3
24 20:00 16.4 75 10.47 12 15 19 1014.2 0 23.4 28.2 46.1 121.2 119.9 414.0
24 19:50 16.6 73 10.31 11.7 15 17 1013.1 0 23.1 27.8 45.2 119.0 117.3 405.1
24 19:40 16.9 72 10.36 11.8 15 17 1013.1 0 23.2 27.8 45.3 119.1 117.5 405.9
24 19:30 17 71 10.27 11.7 15 19 1014.1 0 23.0 27.7 44.9 118.1 116.3 401.4
24 19:20 17.2 69 10.1 11.6 15 19 1013.1 0 22.6 27.3 44.0 115.8 113.6 392.2
24 19:10 17.2 68 9.96 11.4 17 19 1013.1 0 22.3 27.1 43.5 114.3 111.8 385.7
24 19:00 17.4 69 10.23 11.7 15 19 1013.9 0 22.9 27.5 44.5 117.0 115.1 397.5
24 18:50 17.5 69 10.29 11.7 15 17 1013.1 0 23.0 27.5 44.6 117.4 115.7 399.5
24 18:40 17.6 68 10.2 11.6 17 20 1013.1 0 22.8 27.3 44.2 116.3 114.4 394.8
24 18:30 17.7 68 10.26 11.7 17 22 1014 0 22.9 27.4 44.4 116.9 115.1 397.4
24 18:20 17.8 67 10.17 11.6 17 20 1013.1 0 22.7 27.2 44.0 115.7 113.7 392.4
24 18:10 17.8 67 10.17 11.6 15 20 1013.1 0 22.7 27.2 44.0 115.7 113.7 392.4
24 18:00 18 66 10.14 11.6 19 24 1014.2 0 22.7 27.2 43.8 115.2 113.1 390.4
24 17:50 18 65 9.98 11.3 20 22 1013.1 0 22.3 26.9 43.1 113.4 110.9 382.7
24 17:40 18.4 65 10.22 11.7 17 19 1013.1 0 22.8 27.1 43.9 115.3 113.4 391.7
24 17:30 18.4 64 10.07 11.5 17 22 1014.5 0 22.5 26.9 43.3 113.9 111.6 385.3
24 17:20 18.8 64 10.31 11.8 17 19 1013.1 0 23.0 27.2 44.0 115.7 114.0 393.8
24 17:10 18.9 63 10.21 11.7 13 15 1013.1 0 22.8 27.0 43.5 114.5 112.6 388.8
24 17:00 18.5 64 10.13 11.6 17 20 1014.9 0 22.6 27.0 43.5 114.4 112.3 387.7
24 16:50 18.7 63 10.09 11.5 17 19 1013.1 0 22.5 26.8 43.2 113.5 111.3 384.3
24 16:40 18.5 61 9.65 11 17 19 1013.1 0 21.6 26.2 41.5 109.2 105.9 365.3
24 16:30 18.5 63 9.97 11.3 15 20 1015.1 0 22.3 26.8 42.9 112.8 110.2 380.4
24 16:20 18.9 63 10.21 11.7 17 19 1013.1 0 22.8 27.0 43.5 114.5 112.6 388.8
24 16:10 18.6 63 10.03 11.6 17 19 1013.1 0 22.4 26.8 43.0 113.0 110.7 382.1
24 16:00 18.4 63 9.91 11.2 19 22 1015.3 0 22.1 26.7 42.7 112.3 109.6 378.2
24 15:50 18.8 61 9.82 11.1 17 20 1013.1 0 21.9 26.4 42.1 110.5 107.7 371.6
24 15:40 18.5 61 9.65 10.8 15 19 1013.1 0 21.6 26.2 41.5 109.2 105.9 365.3
24 15:30 18.8 62 9.98 11.4 17 22 1015.6 0 22.3 26.7 42.8 112.5 110.0 379.6
24 15:20 19.1 59 9.67 10.9 19 22 1013.1 0 21.6 26.1 41.3 108.6 105.3 363.5
24 15:10 18.6 61 9.71 10.9 19 22 1013.1 0 21.7 26.3 41.7 109.7 106.5 367.6
24 15:00 18.8 61 9.82 11.1 19 24 1016 0 21.9 26.5 42.2 110.9 107.9 372.5
24 14:50 18.8 59 9.5 10.8 19 20 1013.1 0 21.3 25.9 40.8 107.2 103.6 357.3
24 14:40 18.8 61 9.82 11.1 17 20 1013.1 0 21.9 26.4 42.1 110.5 107.7 371.6
24 14:30 18.9 60 9.72 11 17 22 1016.3 0 21.7 26.3 41.8 109.7 106.5 367.6
24 14:20 18.8 61 9.82 11.1 17 19 1013.1 0 21.9 26.4 42.1 110.5 107.7 371.6
24 14:10 19 59 9.61 10.8 15 17 1013.1 0 21.5 26.0 41.1 108.1 104.7 361.3
24 14:00 18.6 60 9.55 10.7 17 22 1016.7 0 21.4 26.1 41.3 108.4 104.8 361.4
24 13:50 18.8 59 9.5 10.8 19 22 1013.1 0 21.3 25.9 40.8 107.2 103.6 357.3
24 13:40 19 59 9.61 10.8 19 20 1013.1 0 21.5 26.0 41.1 108.1 104.7 361.3
24 13:30 18.7 61 9.77 11 17 20 1016.9 0 21.8 26.5 42.1 110.6 107.5 370.9
24 13:20 18.6 60 9.55 10.7 17 20 1013.1 0 21.4 26.0 41.1 108.0 104.5 360.4
24 13:10 18.9 59 9.56 10.7 20 20 1013.1 0 21.4 25.9 41.0 107.7 104.2 359.5
24 13:00 18.8 60 9.66 10.9 20 26 1017.4 0 21.6 26.3 41.6 109.3 106.0 365.7
24 12:50 18.7 61 9.77 11 20 22 1013.1 0 21.8 26.3 41.9 110.2 107.2 369.8
24 12:40 18.3 61 9.54 10.6 15 19 1013.1 0 21.4 26.1 41.2 108.3 104.8 361.3
24 12:30 18.6 61 9.71 10.9 17 22 1017.6 0 21.7 26.4 41.9 110.2 106.9 368.9
24 12:20 18.3 62 9.69 10.9 17 20 1013.1 0 21.7 26.3 41.8 109.9 106.7 368.1
24 12:10 18.3 61 9.54 10.6 19 22 1013.1 0 21.4 26.1 41.2 108.3 104.8 361.3
24 12:00 18.7 61 9.77 11 17 24 1017.9 0 21.8 26.5 42.1 110.7 107.6 371.2
24 11:50 18.1 60 9.27 10.4 17 20 1013.1 0 20.8 25.7 40.3 105.8 101.6 350.1
24 11:40 18.1 60 9.27 10.4 17 19 1013.1 0 20.8 25.7 40.3 105.8 101.6 350.1
24 11:30 17.9 63 9.62 10.8 19 24 1018 0 21.5 26.5 42.0 110.2 106.8 368.2
24 11:20 17.7 62 9.35 10.3 19 22 1013.1 0 21.0 26.0 40.8 107.1 103.1 355.5
24 11:10 17.9 62 9.47 10.7 20 22 1013.1 0 21.2 26.1 41.2 108.1 104.4 360.0
24 11:00 18.1 62 9.58 10.7 17 24 1018.1 0 21.5 26.4 41.7 109.5 106.0 365.5
24 10:50 18 63 9.68 10.8 17 19 1013.1 0 21.7 26.4 41.9 110.2 107.0 369.0
24 10:40 17.4 63 9.34 10.3 15 19 1013.1 0 21.0 26.0 40.9 107.4 103.4 356.4
24 10:30 17.9 64 9.77 11 17 22 1018.2 0 21.9 26.8 42.6 111.8 108.7 375.1
24 10:20 17.3 63 9.28 10.2 19 22 1013.1 0 20.9 26.0 40.7 107.0 102.7 354.1
24 10:10 17.3 64 9.43 10.4 19 20 1013.1 0 21.2 26.2 41.3 108.5 104.7 360.9
24 10:00 17.2 65 9.52 10.6 19 24 1018.3 0 21.4 26.6 42.0 110.2 106.4 367.0
24 09:50 17.2 64 9.37 10.5 22 24 1013.1 0 21.1 26.1 41.1 108.0 104.0 358.7
24 09:40 17.3 64 9.43 10.4 19 22 1013.1 0 21.2 26.2 41.3 108.5 104.7 360.9
24 09:30 16.9 65 9.35 10.3 15 19 1018.3 0 21.0 26.4 41.4 108.8 104.6 360.6
24 09:20 17.1 64 9.32 10.4 11 15 1013.1 0 21.0 26.1 41.0 107.6 103.5 356.8
24 09:10 17 66 9.55 10.6 11 13 1013.1 0 21.5 26.5 41.9 110.2 106.6 367.8

Last Refresh: 25-Nov-2020 01:58:15

Most of the information presented on this site is sourced from the Bureau of Meteorology.  Copyright in all material sourced from the Bureau of Meteorology resides with the Commonwealth of Australia.